createdAt,value
2022-08-22T00:01:30.988Z,74.60
2022-08-22T00:03:01.115Z,67.70
2022-08-22T00:03:12.822Z,70.40
2022-08-22T00:04:19.785Z,74.60
2022-08-22T00:06:59.839Z,74.30
2022-08-22T00:09:45.542Z,74.50
2022-08-22T00:12:18.907Z,75.00
2022-08-22T00:15:00.523Z,75.30
2022-08-22T00:17:33.406Z,75.50
2022-08-22T00:20:13.304Z,75.00
2022-08-22T00:22:45.077Z,74.60
2022-08-22T00:25:34.946Z,74.60
2022-08-22T00:28:13.877Z,74.30
2022-08-22T00:31:07.665Z,74.70
2022-08-22T00:34:06.128Z,74.60
2022-08-22T00:36:47.922Z,74.50
2022-08-22T00:39:36.997Z,74.50
2022-08-22T00:42:29.311Z,74.60
2022-08-22T00:45:09.938Z,74.80
2022-08-22T00:47:45.386Z,74.80
2022-08-22T00:50:27.491Z,74.70
2022-08-22T00:53:10.878Z,75.10
2022-08-22T00:55:52.862Z,74.80
2022-08-22T00:58:50.866Z,74.60
2022-08-22T01:01:22.739Z,75.00
2022-08-22T01:04:25.511Z,75.00
2022-08-22T01:07:21.777Z,75.00
2022-08-22T01:10:03.750Z,74.80
2022-08-22T01:12:52.891Z,75.30
2022-08-22T01:15:29.384Z,75.20
2022-08-22T01:18:33.639Z,74.70
2022-08-22T01:21:24.249Z,75.20
2022-08-22T01:24:17.974Z,75.20
2022-08-22T01:26:55.666Z,75.40
2022-08-22T01:29:52.721Z,74.70
2022-08-22T01:32:32.025Z,74.80
2022-08-22T01:35:24.108Z,75.10
2022-08-22T01:38:18.478Z,75.60
2022-08-22T01:41:04.820Z,76.00
2022-08-22T01:44:03.393Z,75.50
2022-08-22T01:47:20.501Z,74.90
2022-08-22T01:49:58.543Z,74.70
2022-08-22T01:52:43.658Z,74.60
2022-08-22T01:55:32.288Z,75.10
2022-08-22T01:58:23.804Z,75.40
2022-08-22T02:00:54.874Z,74.90
2022-08-22T02:03:54.510Z,75.50
2022-08-22T02:06:51.629Z,74.90
2022-08-22T02:10:09.853Z,75.10
2022-08-22T02:12:43.439Z,75.10
2022-08-22T02:15:36.606Z,75.50
2022-08-22T02:18:06.970Z,75.50
2022-08-22T02:21:12.665Z,76.10
2022-08-22T02:24:24.924Z,76.10
2022-08-22T02:27:04.628Z,75.90
2022-08-22T02:30:03.780Z,75.70
2022-08-22T02:33:03.017Z,75.70
2022-08-22T02:35:59.809Z,75.20
2022-08-22T02:38:53.371Z,75.50
2022-08-22T02:41:30.934Z,75.60
2022-08-22T02:44:20.492Z,75.40
2022-08-22T02:46:50.580Z,75.50
2022-08-22T02:49:36.071Z,76.40
2022-08-22T02:52:28.894Z,76.50
2022-08-22T02:55:11.622Z,76.70
2022-08-22T02:58:04.393Z,76.90
2022-08-22T03:00:47.637Z,76.00
2022-08-22T03:03:24.728Z,76.00
2022-08-22T03:06:01.363Z,76.20
2022-08-22T03:08:37.890Z,75.60
2022-08-22T03:11:18.829Z,75.40
2022-08-22T03:13:54.819Z,75.10
2022-08-22T03:16:43.300Z,75.40
2022-08-22T03:19:45.810Z,75.00
2022-08-22T03:22:36.613Z,75.10
2022-08-22T03:25:18.973Z,75.80
2022-08-22T03:28:16.438Z,75.30
2022-08-22T03:30:56.551Z,74.20
2022-08-22T03:33:31.457Z,74.50
2022-08-22T03:36:17.373Z,74.30
2022-08-22T03:38:47.637Z,74.60
2022-08-22T03:41:35.183Z,74.80
2022-08-22T03:44:21.873Z,74.90
2022-08-22T03:47:13.349Z,74.60
2022-08-22T03:49:40.064Z,73.90
2022-08-22T03:52:22.324Z,74.00
2022-08-22T03:55:10.956Z,73.80
2022-08-22T03:58:27.373Z,73.40
2022-08-22T04:01:47.256Z,73.40
2022-08-22T04:04:35.029Z,74.20
2022-08-22T04:07:31.403Z,73.70
2022-08-22T04:10:36.198Z,74.10
2022-08-22T04:13:28.212Z,74.20
2022-08-22T04:16:06.761Z,74.30
2022-08-22T04:18:52.087Z,74.10
2022-08-22T04:21:40.733Z,73.90
2022-08-22T04:24:32.453Z,73.80
2022-08-22T04:27:22.171Z,73.90
2022-08-22T04:30:17.944Z,74.60
2022-08-22T04:32:53.148Z,74.30
2022-08-22T04:35:29.396Z,74.60
2022-08-22T04:37:59.496Z,73.70
2022-08-22T04:40:39.133Z,73.20
2022-08-22T04:43:18.147Z,73.80
2022-08-22T04:45:57.004Z,74.20
2022-08-22T04:48:35.024Z,73.90
2022-08-22T04:51:15.647Z,74.50
2022-08-22T04:54:10.561Z,74.80
2022-08-22T04:57:03.094Z,74.60
2022-08-22T04:59:33.583Z,74.30
2022-08-22T05:02:06.625Z,74.20
2022-08-22T05:04:46.996Z,74.00
2022-08-22T05:07:16.268Z,74.90
2022-08-22T05:09:47.967Z,75.40
2022-08-22T05:12:23.520Z,76.00
2022-08-22T05:14:54.530Z,76.70
2022-08-22T05:17:26.528Z,76.30
2022-08-22T05:20:02.573Z,76.50
2022-08-22T05:22:32.949Z,77.30
2022-08-22T05:25:22.530Z,77.00
2022-08-22T05:27:58.071Z,75.80
2022-08-22T05:30:28.957Z,75.20
2022-08-22T05:33:25.448Z,75.10
2022-08-22T05:36:01.052Z,75.10
2022-08-22T05:38:40.582Z,75.50
2022-08-22T05:41:20.695Z,76.00
2022-08-22T05:44:05.988Z,76.30
2022-08-22T05:46:47.303Z,76.00
2022-08-22T05:49:36.773Z,76.30
2022-08-22T05:52:22.663Z,76.60
2022-08-22T05:55:24.395Z,77.60
2022-08-22T05:58:21.545Z,80.20
2022-08-22T06:00:57.513Z,81.40
2022-08-22T06:03:45.869Z,80.90
2022-08-22T06:06:21.790Z,79.80
2022-08-22T06:09:18.916Z,79.70
2022-08-22T06:12:22.022Z,79.30
2022-08-22T06:15:21.251Z,78.80
2022-08-22T06:18:01.706Z,79.00
2022-08-22T06:20:50.173Z,79.00
2022-08-22T06:23:26.992Z,79.60
2022-08-22T06:25:59.498Z,79.50
2022-08-22T06:28:34.103Z,79.40
2022-08-22T06:31:06.293Z,79.90
2022-08-22T06:33:45.904Z,80.10
2022-08-22T06:36:34.203Z,80.10
2022-08-22T06:39:38.746Z,80.20
2022-08-22T06:42:25.611Z,80.60
2022-08-22T06:48:18.132Z,80.80
2022-08-22T06:50:49.856Z,81.00
2022-08-22T06:53:48.461Z,81.10
2022-08-22T06:56:25.450Z,80.80
2022-08-22T06:58:58.760Z,80.40
2022-08-22T07:01:32.030Z,80.00
2022-08-22T07:04:06.157Z,80.80
2022-08-22T07:06:44.950Z,80.80
2022-08-22T07:09:39.944Z,79.80
2022-08-22T07:12:29.750Z,78.70
2022-08-22T07:15:20.510Z,78.70
2022-08-22T07:17:52.534Z,79.40
2022-08-22T07:20:32.849Z,80.20
2022-08-22T07:23:06.825Z,80.30
2022-08-22T07:25:49.003Z,80.20
2022-08-22T07:28:37.134Z,80.60
2022-08-22T07:31:30.926Z,80.20
2022-08-22T07:34:22.029Z,79.70
2022-08-22T07:37:25.611Z,79.70
2022-08-22T07:39:59.850Z,79.20
2022-08-22T07:43:00.306Z,79.10
2022-08-22T07:45:57.024Z,79.40
2022-08-22T07:48:27.295Z,79.20
2022-08-22T07:51:03.151Z,79.40
2022-08-22T07:53:43.942Z,79.20
2022-08-22T07:56:23.861Z,78.70
2022-08-22T07:58:59.869Z,78.90
2022-08-22T08:01:30.120Z,78.80
2022-08-22T08:04:01.578Z,78.70
2022-08-22T08:06:29.150Z,78.70
2022-08-22T08:08:57.087Z,79.20
2022-08-22T08:11:27.907Z,79.50
2022-08-22T08:14:02.842Z,79.40
2022-08-22T08:16:40.444Z,79.20
2022-08-22T08:19:11.141Z,80.70
2022-08-22T08:21:46.300Z,80.90
2022-08-22T08:24:17.883Z,81.00
2022-08-22T08:27:10.243Z,81.20
2022-08-22T08:29:40.708Z,81.40
2022-08-22T08:32:11.564Z,82.20
2022-08-22T08:34:44.728Z,82.20
2022-08-22T08:37:33.325Z,82.60
2022-08-22T08:40:05.111Z,81.70
2022-08-22T08:43:02.805Z,81.00
2022-08-22T08:45:42.584Z,80.80
2022-08-22T08:48:24.658Z,81.60
2022-08-22T08:51:16.992Z,81.30
2022-08-22T08:53:54.119Z,81.00
2022-08-22T08:56:42.785Z,81.40
2022-08-22T08:59:51.365Z,81.70
2022-08-22T09:02:42.536Z,81.50
2022-08-22T09:05:34.312Z,81.60
2022-08-22T09:08:23.700Z,81.00
2022-08-22T09:11:09.575Z,80.80
2022-08-22T09:14:07.485Z,81.60
2022-08-22T09:17:01.097Z,81.70
2022-08-22T09:20:17.525Z,81.60
2022-08-22T09:23:18.122Z,81.40
2022-08-22T09:25:50.888Z,81.80
2022-08-22T09:28:48.441Z,81.80
2022-08-22T09:32:00.289Z,81.40
2022-08-22T09:34:34.427Z,81.90
2022-08-22T09:37:08.745Z,82.50
2022-08-22T09:39:53.501Z,83.20
2022-08-22T09:43:01.906Z,83.10
2022-08-22T09:45:42.919Z,83.20
2022-08-22T09:48:15.958Z,83.30
2022-08-22T09:50:54.592Z,83.40
2022-08-22T09:53:47.605Z,82.70
2022-08-22T09:56:39.085Z,82.80
2022-08-22T09:59:49.241Z,82.00
2022-08-22T10:02:43.314Z,80.90
2022-08-22T10:05:35.214Z,81.50
2022-08-22T10:08:19.864Z,82.00
2022-08-22T10:11:26.911Z,82.00
2022-08-22T10:14:01.719Z,82.30
2022-08-22T10:16:54.420Z,83.00
2022-08-22T10:19:41.597Z,83.20
2022-08-22T10:22:21.179Z,84.80
2022-08-22T10:25:09.232Z,85.00
2022-08-22T10:27:44.165Z,84.80
2022-08-22T10:30:33.794Z,84.60
2022-08-22T10:33:24.895Z,86.60
2022-08-22T10:36:13.989Z,86.20
2022-08-22T10:38:50.937Z,86.50
2022-08-22T10:41:41.148Z,85.80
2022-08-22T10:44:26.381Z,85.40
2022-08-22T10:47:00.613Z,86.00
2022-08-22T10:49:34.018Z,86.40
2022-08-22T10:52:16.440Z,85.50
2022-08-22T11:12:43.385Z,85.10
2022-08-22T11:19:02.125Z,84.50
2022-08-22T11:22:30.871Z,84.80
2022-08-22T11:28:18.506Z,83.60
2022-08-22T11:31:07.674Z,83.70
2022-08-22T11:41:30.562Z,80.80
2022-08-22T11:44:12.693Z,82.20
2022-08-22T11:46:45.170Z,86.90
2022-08-22T11:49:35.161Z,83.70
2022-08-22T11:52:25.056Z,84.60
2022-08-22T11:55:04.555Z,85.30
2022-08-22T11:57:38.990Z,86.80
2022-08-22T12:00:20.868Z,84.30
2022-08-22T12:03:37.797Z,83.20
2022-08-22T12:06:45.463Z,81.80
2022-08-22T12:10:02.844Z,81.10
2022-08-22T12:12:37.188Z,80.60
2022-08-22T12:15:12.842Z,80.60
2022-08-22T12:18:01.940Z,81.40
2022-08-22T12:20:32.351Z,82.10
2022-08-22T12:23:43.663Z,84.00
2022-08-22T12:26:22.131Z,82.80
2022-08-22T12:29:33.472Z,84.10
2022-08-22T12:32:34.101Z,82.00
2022-08-22T12:35:13.810Z,81.10
2022-08-22T12:37:58.306Z,80.60
2022-08-22T12:40:39.180Z,80.10
2022-08-22T12:43:32.542Z,81.00
2022-08-22T12:46:13.217Z,80.50
2022-08-22T12:48:53.365Z,81.30
2022-08-22T12:51:38.237Z,80.70
2022-08-22T12:54:42.969Z,80.30
2022-08-22T12:57:28.802Z,79.60
2022-08-22T13:00:07.015Z,78.70
2022-08-22T13:02:39.455Z,78.10
2022-08-22T13:05:19.787Z,77.50
2022-08-22T13:07:55.162Z,78.20
2022-08-22T13:10:40.713Z,78.50
2022-08-22T13:13:12.152Z,79.60
2022-08-22T13:15:54.156Z,79.20
2022-08-22T13:18:29.769Z,79.70
2022-08-22T13:21:01.621Z,79.60
2022-08-22T13:23:39.927Z,79.00
2022-08-22T13:26:33.398Z,78.70
2022-08-22T13:29:25.328Z,79.40
2022-08-22T13:32:00.560Z,80.50
2022-08-22T13:34:48.910Z,81.00
2022-08-22T13:37:37.906Z,81.30
2022-08-22T13:40:12.721Z,81.40
2022-08-22T13:42:50.579Z,81.30
2022-08-22T13:45:31.438Z,81.60
2022-08-22T13:48:15.638Z,80.70
2022-08-22T13:51:05.706Z,81.20
2022-08-22T13:53:48.939Z,81.70
2022-08-22T13:56:26.576Z,82.00
2022-08-22T13:59:05.759Z,82.60
2022-08-22T14:01:57.078Z,83.00
2022-08-22T14:04:34.695Z,82.10
2022-08-22T14:07:06.260Z,82.90
2022-08-22T14:09:43.196Z,82.70
2022-08-22T14:12:15.693Z,82.70
2022-08-22T14:14:46.650Z,82.70
2022-08-22T14:17:20.764Z,81.90
2022-08-22T14:19:59.792Z,81.60
2022-08-22T14:22:34.764Z,82.40
2022-08-22T14:25:16.716Z,81.50
2022-08-22T14:27:52.367Z,80.80
2022-08-22T14:30:26.433Z,81.70
2022-08-22T14:33:13.456Z,82.10
2022-08-22T14:35:52.963Z,81.90
2022-08-22T14:38:27.235Z,81.10
2022-08-22T14:41:05.530Z,81.30
2022-08-22T14:43:32.330Z,80.40
2022-08-22T14:46:10.126Z,80.90
2022-08-22T14:49:06.225Z,81.30
2022-08-22T14:51:33.745Z,81.10
2022-08-22T14:54:21.553Z,79.80
2022-08-22T14:56:51.808Z,79.30
2022-08-22T14:59:45.589Z,79.50
2022-08-22T15:02:30.623Z,81.10
2022-08-22T15:05:11.291Z,81.30
2022-08-22T15:07:38.906Z,82.10
2022-08-22T15:10:17.751Z,81.70
2022-08-22T15:12:57.348Z,81.80
2022-08-22T15:15:56.017Z,82.20
2022-08-22T15:18:26.661Z,81.60
2022-08-22T15:21:24.348Z,81.10
2022-08-22T15:24:02.250Z,81.80
2022-08-22T15:26:36.581Z,81.60
2022-08-22T15:29:18.373Z,82.10
2022-08-22T15:31:52.457Z,82.10
2022-08-22T15:34:36.952Z,82.30
2022-08-22T15:37:16.456Z,82.50
2022-08-22T15:40:11.953Z,81.90
2022-08-22T15:42:47.224Z,81.90
2022-08-22T15:45:36.603Z,82.00
2022-08-22T15:48:15.842Z,81.80
2022-08-22T15:51:09.430Z,82.60
2022-08-22T15:53:45.480Z,82.30
2022-08-22T15:56:15.339Z,82.00
2022-08-22T15:58:48.915Z,82.80
2022-08-22T16:01:22.822Z,82.80
2022-08-22T16:04:24.151Z,81.50
2022-08-22T16:06:58.217Z,82.00
2022-08-22T16:09:39.355Z,82.70
2022-08-22T16:12:27.831Z,82.90
2022-08-22T16:14:55.878Z,82.30
2022-08-22T16:17:28.249Z,82.10
2022-08-22T16:20:19.731Z,81.70
2022-08-22T16:22:56.691Z,82.70
2022-08-22T16:25:45.452Z,82.80
2022-08-22T16:28:56.233Z,82.70
2022-08-22T16:31:27.438Z,82.80
2022-08-22T16:33:57.918Z,82.30
2022-08-22T16:36:43.582Z,83.30
2022-08-22T16:39:22.557Z,81.90
2022-08-22T16:42:11.156Z,81.30
2022-08-22T16:44:46.793Z,81.50
2022-08-22T16:47:41.683Z,83.30
2022-08-22T16:50:29.574Z,82.10
2022-08-22T16:53:01.837Z,81.10
2022-08-22T16:55:31.754Z,81.30
2022-08-22T16:58:56.650Z,83.20
2022-08-22T17:02:06.345Z,81.60
2022-08-22T17:05:14.829Z,82.80
2022-08-22T17:08:04.993Z,82.90
2022-08-22T17:10:49.025Z,82.70
2022-08-22T17:13:36.969Z,83.70
2022-08-22T17:16:16.154Z,84.30
2022-08-22T17:18:52.438Z,83.60
2022-08-22T17:21:29.208Z,82.80
2022-08-22T17:24:32.133Z,81.30
2022-08-22T17:27:30.383Z,80.50
2022-08-22T17:30:00.525Z,80.10
2022-08-22T17:33:27.886Z,80.20
2022-08-22T17:36:08.232Z,79.80
2022-08-22T17:39:20.884Z,79.90
2022-08-22T17:41:57.819Z,79.80
2022-08-22T17:44:27.659Z,80.00
2022-08-22T17:47:18.293Z,80.00
2022-08-22T17:49:54.268Z,80.10
2022-08-22T17:52:41.318Z,79.80
2022-08-22T17:55:14.492Z,79.80
2022-08-22T17:57:53.740Z,80.00
2022-08-22T18:00:30.819Z,80.00
2022-08-22T18:03:07.423Z,80.00
2022-08-22T18:05:57.156Z,80.70
2022-08-22T18:12:17.054Z,79.90
2022-08-22T18:14:58.471Z,80.60
2022-08-22T18:17:49.457Z,79.80
2022-08-22T18:20:24.700Z,79.90
2022-08-22T18:23:03.170Z,79.90
2022-08-22T18:25:43.261Z,79.60
2022-08-22T18:28:23.938Z,80.10
2022-08-22T18:30:59.573Z,79.60
2022-08-22T18:33:39.224Z,79.50
2022-08-22T18:36:21.143Z,79.90
2022-08-22T18:39:10.546Z,79.70
2022-08-22T18:41:50.322Z,79.40
2022-08-22T18:44:28.660Z,79.30
2022-08-22T18:47:19.740Z,79.20
2022-08-22T18:49:54.095Z,79.20
2022-08-22T18:52:31.696Z,79.30
2022-08-22T18:55:22.367Z,79.00
2022-08-22T18:58:15.622Z,79.10
2022-08-22T19:00:57.981Z,79.40
2022-08-22T19:03:36.337Z,79.30
2022-08-22T19:06:22.785Z,79.70
2022-08-22T19:09:01.684Z,80.20
2022-08-22T19:11:47.132Z,81.30
2022-08-22T19:14:26.680Z,81.10
2022-08-22T19:17:28.648Z,80.70
2022-08-22T19:20:25.027Z,80.60
2022-08-22T19:23:32.828Z,80.70
2022-08-22T19:26:24.623Z,80.90
2022-08-22T19:29:17.609Z,81.10
2022-08-22T19:31:53.596Z,80.90
2022-08-22T19:34:28.343Z,80.80
2022-08-22T19:37:30.481Z,81.10
2022-08-22T19:40:09.221Z,80.70
2022-08-22T19:42:42.657Z,80.70
2022-08-22T19:45:21.838Z,80.70
2022-08-22T19:48:13.091Z,80.40
2022-08-22T19:50:41.671Z,80.50
2022-08-22T19:53:25.099Z,80.50
2022-08-22T19:56:29.384Z,80.50
2022-08-22T19:59:21.842Z,80.50
2022-08-22T20:02:01.906Z,81.50
2022-08-22T20:05:05.422Z,82.20
2022-08-22T20:08:01.590Z,81.90
2022-08-22T20:10:48.020Z,81.70
2022-08-22T20:13:24.355Z,81.30
2022-08-22T20:16:07.131Z,81.00
2022-08-22T20:19:12.997Z,80.90
2022-08-22T20:21:48.095Z,81.70
2022-08-22T20:24:29.067Z,82.30
2022-08-22T20:27:13.407Z,80.60
2022-08-22T20:30:04.825Z,80.80
2022-08-22T20:32:49.533Z,80.40
2022-08-22T20:35:34.501Z,80.30
2022-08-22T20:38:07.230Z,80.30
2022-08-22T20:40:56.903Z,80.30
2022-08-22T20:43:39.639Z,79.90
2022-08-22T20:46:06.410Z,80.50
2022-08-22T20:48:41.238Z,80.60
2022-08-22T20:51:09.407Z,80.50
2022-08-22T20:53:36.819Z,80.90
2022-08-22T20:56:07.056Z,80.80
2022-08-22T20:58:38.419Z,80.50
2022-08-22T21:01:07.081Z,80.90
2022-08-22T21:03:40.902Z,80.90
2022-08-22T21:06:20.050Z,81.10
2022-08-22T21:09:08.483Z,80.30
2022-08-22T21:11:41.168Z,80.50
2022-08-22T21:14:22.818Z,80.60
2022-08-22T21:16:54.731Z,81.10
2022-08-22T21:19:27.944Z,80.30
2022-08-22T21:22:11.730Z,81.20
2022-08-22T21:24:41.245Z,80.50
2022-08-22T21:27:10.670Z,81.20
2022-08-22T21:29:46.313Z,80.60
2022-08-22T21:32:32.050Z,81.30
2022-08-22T21:34:59.458Z,80.90
2022-08-22T21:37:40.461Z,81.00
2022-08-22T21:40:23.931Z,81.30
2022-08-22T21:43:12.287Z,81.20
2022-08-22T21:45:39.229Z,81.60
2022-08-22T21:48:38.853Z,81.00
2022-08-22T21:51:28.442Z,80.70
2022-08-22T21:54:29.623Z,80.50
2022-08-22T21:57:18.524Z,80.90
2022-08-22T21:59:52.122Z,81.30
2022-08-22T22:02:39.668Z,81.30
2022-08-22T22:05:25.747Z,80.80
2022-08-22T22:07:52.750Z,81.90
2022-08-22T22:10:22.550Z,87.60
2022-08-22T22:12:53.563Z,88.00
2022-08-22T22:15:25.305Z,87.50
2022-08-22T22:17:52.999Z,87.20
2022-08-22T22:20:24.438Z,86.80
2022-08-22T22:22:51.292Z,85.60
2022-08-22T22:25:40.703Z,85.50
2022-08-22T22:28:14.390Z,86.10
2022-08-22T22:30:43.371Z,84.80
2022-08-22T22:33:12.105Z,83.70
2022-08-22T22:35:40.363Z,83.90
2022-08-22T22:38:09.693Z,83.60
2022-08-22T22:40:46.651Z,83.40
2022-08-22T22:43:13.706Z,82.00
2022-08-22T22:45:40.739Z,81.90
2022-08-22T22:48:08.118Z,81.80
2022-08-22T22:50:40.449Z,81.90
2022-08-22T22:53:09.487Z,81.60
2022-08-22T22:55:37.221Z,81.80
2022-08-22T22:58:08.470Z,82.40
2022-08-22T23:00:37.504Z,82.00
2022-08-22T23:03:06.341Z,82.10
2022-08-22T23:05:33.868Z,81.60
2022-08-22T23:08:03.666Z,81.80
2022-08-22T23:10:34.047Z,81.80
2022-08-22T23:13:00.886Z,81.40
2022-08-22T23:15:31.507Z,81.40
2022-08-22T23:17:58.705Z,81.00
2022-08-22T23:20:25.637Z,81.00
2022-08-22T23:22:52.654Z,81.20
2022-08-22T23:25:19.457Z,80.70
2022-08-22T23:27:52.192Z,81.00
2022-08-22T23:30:20.023Z,80.90
2022-08-22T23:32:47.013Z,80.80
2022-08-22T23:35:15.294Z,80.70
2022-08-22T23:37:43.154Z,80.80
2022-08-22T23:40:10.809Z,80.60
2022-08-22T23:42:37.769Z,80.60
2022-08-22T23:45:05.024Z,80.30
2022-08-22T23:47:31.988Z,80.50
2022-08-22T23:50:02.957Z,80.30
2022-08-22T23:52:33.348Z,80.40
2022-08-22T23:55:00.172Z,80.10
2022-08-22T23:57:27.608Z,80.50
2022-08-22T23:59:57.636Z,80.10
